National Weather Service United States Department of Commerce


587
FTPA31 PHFO 221120
TAFSTU
TAF
NSTU 221120Z 2212/2312 VRB05KT P6SM FEW020 SCT040 SCT110=


000
SAZS31 NSTU 221628
MTRPPG
METAR NSTU 221550Z VRB02KT 10SM SKC 25/24 A2981 RMK SLP095 T02510244=






METAR Formatted Surface Weather Observation  Issued: 04/22/2018 05:28:18 AM SST

NSTU Observation History

 

Significant Weather Charts